LCLK/LCA METAR and TAF weather

Enter ICAO airport designator
Station Type Date Time Source
LCLK METAR 2018/12/13 06:30 UTC NOAA

LCLK 130630Z 24005KT 9999 FEW030 15/08 Q1022 NOSIG


Station Type Date Time Source
LCLK Decoded METAR 2018/12/13 06:30 UTC NOAA

Larnaca Airport, Cyprus (LCLK) 34-53N 033-38E 2M
Dec 13, 2018 - 01:30 AM EST / 2018.12.13 0630 UTC
Wind: from the WSW (240 degrees) at 6 MPH (5 KT):0
Visibility: greater than 7 mile(s):0
Sky conditions: mostly clear
Temperature: 59 F (15 C)
Dew Point: 46 F (8 C)
Relative Humidity: 62%
Pressure (altimeter): 30.18 in. Hg (1022 hPa)
ob: LCLK 130630Z 24005KT 9999 FEW030 15/08 Q1022 NOSIG
cycle: 6

Station Type Date Time Source
LCLK TAF 2018/12/13 06:30 UTC NOAA

TAF LCLK 130530Z 1306/1406 24008KT 9999 FEW025 SCT050
BECMG 1316/1319 32007KT PROB30
TEMPO 1402/1406 5000 SHRA
BECMG 1404/1406 21010KT


Example: see airport list